Terminal Aerodrome Forecast
Issued by NWS

Home | Current Version | Previous Version | Text Only | Print | Product List | Glossary On
Versions: 1 2 3 4 5 6 7 8 9 10 11 12 13 14 15 16 17 18 19 20 21
000
FTUS45 KABQ 230500
TAFLVS
TAF
KLVS 230538Z 2306/2406 17010KT 6SM BR SCT005 BKN040
      TEMPO 2306/2309 4SM BR BKN002
     FM230900 19008KT P6SM VCFG SCT003 BKN007
      TEMPO 2310/2313 4SM BR OVC004
     FM231500 20009KT P6SM SCT015 SCT030
     FM232100 20012G18KT P6SM SCT060
     FM240200 19008KT P6SM SCT110=

USA.gov is the U.S. government's official web portal to all federal, state and local government web resources and services.